sensor_id;sensor_type;location;lat;lon;timestamp;P1;durP1;ratioP1;P2;durP2;ratioP2
9270;SDS011;4673;53.458;9.940;2023-03-23T00:02:14;7.70;;;7.70;;
9270;SDS011;4673;53.458;9.940;2023-03-23T00:04:40;8.43;;;8.43;;
9270;SDS011;4673;53.458;9.940;2023-03-23T00:07:07;7.70;;;7.70;;
9270;SDS011;4673;53.458;9.940;2023-03-23T00:09:33;8.93;;;8.93;;
9270;SDS011;4673;53.458;9.940;2023-03-23T00:11:59;8.40;;;8.40;;
9270;SDS011;4673;53.458;9.940;2023-03-23T00:14:31;10.53;;;10.53;;
9270;SDS011;4673;53.458;9.940;2023-03-23T00:17:06;10.47;;;10.37;;
9270;SDS011;4673;53.458;9.940;2023-03-23T00:19:35;10.83;;;10.83;;
9270;SDS011;4673;53.458;9.940;2023-03-23T00:22:10;11.63;;;11.63;;
9270;SDS011;4673;53.458;9.940;2023-03-23T00:24:40;11.13;;;11.13;;
9270;SDS011;4673;53.458;9.940;2023-03-23T00:27:06;11.90;;;11.87;;
9270;SDS011;4673;53.458;9.940;2023-03-23T00:29:33;11.20;;;11.10;;
9270;SDS011;4673;53.458;9.940;2023-03-23T00:31:59;11.90;;;11.90;;
9270;SDS011;4673;53.458;9.940;2023-03-23T00:34:27;11.63;;;11.53;;
9270;SDS011;4673;53.458;9.940;2023-03-23T00:36:57;11.93;;;11.93;;
9270;SDS011;4673;53.458;9.940;2023-03-23T00:39:23;12.60;;;12.60;;
9270;SDS011;4673;53.458;9.940;2023-03-23T00:41:51;13.00;;;13.00;;
9270;SDS011;4673;53.458;9.940;2023-03-23T00:44:18;13.03;;;13.03;;
9270;SDS011;4673;53.458;9.940;2023-03-23T00:46:44;12.77;;;12.73;;
9270;SDS011;4673;53.458;9.940;2023-03-23T00:49:15;12.80;;;12.80;;
9270;SDS011;4673;53.458;9.940;2023-03-23T00:51:43;13.57;;;13.57;;
9270;SDS011;4673;53.458;9.940;2023-03-23T00:54:09;13.70;;;13.60;;
9270;SDS011;4673;53.458;9.940;2023-03-23T00:56:35;13.73;;;13.63;;
9270;SDS011;4673;53.458;9.940;2023-03-23T00:59:02;12.80;;;12.70;;
9270;SDS011;4673;53.458;9.940;2023-03-23T01:01:28;13.80;;;13.73;;
9270;SDS011;4673;53.458;9.940;2023-03-23T01:03:54;14.77;;;14.67;;
9270;SDS011;4673;53.458;9.940;2023-03-23T01:06:26;15.60;;;15.50;;
9270;SDS011;4673;53.458;9.940;2023-03-23T01:08:52;15.70;;;15.60;;
9270;SDS011;4673;53.458;9.940;2023-03-23T01:11:19;15.53;;;15.43;;
9270;SDS011;4673;53.458;9.940;2023-03-23T01:13:45;14.70;;;14.60;;
9270;SDS011;4673;53.458;9.940;2023-03-23T01:16:11;15.27;;;15.17;;
9270;SDS011;4673;53.458;9.940;2023-03-23T01:18:37;15.43;;;15.33;;
9270;SDS011;4673;53.458;9.940;2023-03-23T01:21:14;14.90;;;14.80;;
9270;SDS011;4673;53.458;9.940;2023-03-23T01:23:42;15.43;;;15.33;;
9270;SDS011;4673;53.458;9.940;2023-03-23T01:26:10;16.17;;;16.07;;
9270;SDS011;4673;53.458;9.940;2023-03-23T01:28:40;14.47;;;14.37;;
9270;SDS011;4673;53.458;9.940;2023-03-23T01:31:07;17.43;;;17.33;;
9270;SDS011;4673;53.458;9.940;2023-03-23T01:33:37;16.57;;;16.47;;
9270;SDS011;4673;53.458;9.940;2023-03-23T01:36:04;18.63;;;18.53;;
9270;SDS011;4673;53.458;9.940;2023-03-23T01:38:32;17.57;;;17.47;;
9270;SDS011;4673;53.458;9.940;2023-03-23T01:40:58;16.00;;;15.90;;
9270;SDS011;4673;53.458;9.940;2023-03-23T01:43:24;16.97;;;16.87;;
9270;SDS011;4673;53.458;9.940;2023-03-23T01:45:49;17.27;;;17.17;;
9270;SDS011;4673;53.458;9.940;2023-03-23T01:48:17;17.57;;;17.47;;
9270;SDS011;4673;53.458;9.940;2023-03-23T01:50:50;18.37;;;18.27;;
9270;SDS011;4673;53.458;9.940;2023-03-23T01:53:16;15.03;;;14.93;;
9270;SDS011;4673;53.458;9.940;2023-03-23T01:55:43;16.60;;;16.50;;
9270;SDS011;4673;53.458;9.940;2023-03-23T01:58:13;16.97;;;16.87;;
9270;SDS011;4673;53.458;9.940;2023-03-23T02:00:40;14.97;;;14.87;;
9270;SDS011;4673;53.458;9.940;2023-03-23T02:03:07;17.57;;;17.47;;
9270;SDS011;4673;53.458;9.940;2023-03-23T02:05:36;15.27;;;15.17;;
9270;SDS011;4673;53.458;9.940;2023-03-23T02:08:04;15.77;;;15.67;;
9270;SDS011;4673;53.458;9.940;2023-03-23T02:10:33;17.17;;;17.07;;
9270;SDS011;4673;53.458;9.940;2023-03-23T02:13:00;16.53;;;16.43;;
9270;SDS011;4673;53.458;9.940;2023-03-23T02:15:29;16.60;;;16.50;;
9270;SDS011;4673;53.458;9.940;2023-03-23T02:18:21;14.70;;;14.60;;
9270;SDS011;4673;53.458;9.940;2023-03-23T02:23:52;16.43;;;16.33;;
9270;SDS011;4673;53.458;9.940;2023-03-23T02:26:50;15.47;;;15.37;;
9270;SDS011;4673;53.458;9.940;2023-03-23T02:32:04;15.60;;;15.50;;
9270;SDS011;4673;53.458;9.940;2023-03-23T02:37:26;15.50;;;15.40;;
9270;SDS011;4673;53.458;9.940;2023-03-23T02:39:57;14.67;;;14.57;;
9270;SDS011;4673;53.458;9.940;2023-03-23T02:42:36;14.70;;;14.60;;
9270;SDS011;4673;53.458;9.940;2023-03-23T02:45:08;13.97;;;13.87;;
9270;SDS011;4673;53.458;9.940;2023-03-23T02:47:36;13.80;;;13.80;;
9270;SDS011;4673;53.458;9.940;2023-03-23T02:50:03;14.47;;;14.37;;
9270;SDS011;4673;53.458;9.940;2023-03-23T02:52:32;15.77;;;15.67;;
9270;SDS011;4673;53.458;9.940;2023-03-23T02:55:01;16.00;;;15.90;;
9270;SDS011;4673;53.458;9.940;2023-03-23T02:57:29;17.17;;;17.07;;
9270;SDS011;4673;53.458;9.940;2023-03-23T02:59:56;16.63;;;16.53;;
9270;SDS011;4673;53.458;9.940;2023-03-23T03:02:23;18.03;;;17.93;;
9270;SDS011;4673;53.458;9.940;2023-03-23T03:07:39;19.17;;;19.07;;
9270;SDS011;4673;53.458;9.940;2023-03-23T03:10:27;16.80;;;16.70;;
9270;SDS011;4673;53.458;9.940;2023-03-23T03:15:47;16.27;;;16.17;;
9270;SDS011;4673;53.458;9.940;2023-03-23T03:18:57;18.97;;;18.87;;
9270;SDS011;4673;53.458;9.940;2023-03-23T03:21:34;18.50;;;18.40;;
9270;SDS011;4673;53.458;9.940;2023-03-23T03:24:03;16.70;;;16.60;;
9270;SDS011;4673;53.458;9.940;2023-03-23T03:26:36;16.37;;;16.27;;
9270;SDS011;4673;53.458;9.940;2023-03-23T03:29:10;17.23;;;17.13;;
9270;SDS011;4673;53.458;9.940;2023-03-23T03:31:38;17.57;;;17.47;;
9270;SDS011;4673;53.458;9.940;2023-03-23T03:34:05;17.23;;;17.13;;
9270;SDS011;4673;53.458;9.940;2023-03-23T03:36:33;18.00;;;17.90;;
9270;SDS011;4673;53.458;9.940;2023-03-23T03:39:03;17.93;;;17.83;;
9270;SDS011;4673;53.458;9.940;2023-03-23T03:41:33;16.97;;;16.87;;
9270;SDS011;4673;53.458;9.940;2023-03-23T03:44:00;17.40;;;17.30;;
9270;SDS011;4673;53.458;9.940;2023-03-23T03:46:26;17.40;;;17.30;;
9270;SDS011;4673;53.458;9.940;2023-03-23T03:48:55;17.10;;;17.00;;
9270;SDS011;4673;53.458;9.940;2023-03-23T03:51:24;17.40;;;17.30;;
9270;SDS011;4673;53.458;9.940;2023-03-23T03:53:51;19.57;;;19.47;;
9270;SDS011;4673;53.458;9.940;2023-03-23T03:56:17;19.57;;;19.47;;
9270;SDS011;4673;53.458;9.940;2023-03-23T03:58:43;19.80;;;19.70;;
9270;SDS011;4673;53.458;9.940;2023-03-23T04:01:09;21.67;;;21.57;;
9270;SDS011;4673;53.458;9.940;2023-03-23T04:03:36;20.13;;;20.03;;
9270;SDS011;4673;53.458;9.940;2023-03-23T04:06:02;18.20;;;18.10;;
9270;SDS011;4673;53.458;9.940;2023-03-23T04:08:28;19.87;;;19.73;;
9270;SDS011;4673;53.458;9.940;2023-03-23T04:10:54;18.77;;;18.67;;
9270;SDS011;4673;53.458;9.940;2023-03-23T04:13:20;19.43;;;19.33;;
9270;SDS011;4673;53.458;9.940;2023-03-23T04:15:46;19.63;;;19.53;;
9270;SDS011;4673;53.458;9.940;2023-03-23T04:18:13;22.30;;;22.20;;
9270;SDS011;4673;53.458;9.940;2023-03-23T04:20:41;21.40;;;21.30;;
9270;SDS011;4673;53.458;9.940;2023-03-23T04:23:08;21.70;;;21.60;;
9270;SDS011;4673;53.458;9.940;2023-03-23T04:25:33;17.87;;;17.77;;
9270;SDS011;4673;53.458;9.940;2023-03-23T04:28:00;19.80;;;19.70;;
9270;SDS011;4673;53.458;9.940;2023-03-23T04:30:27;19.63;;;19.53;;
9270;SDS011;4673;53.458;9.940;2023-03-23T04:32:54;20.87;;;20.77;;
9270;SDS011;4673;53.458;9.940;2023-03-23T04:35:21;20.67;;;20.57;;
9270;SDS011;4673;53.458;9.940;2023-03-23T04:37:51;27.17;;;27.07;;
9270;SDS011;4673;53.458;9.940;2023-03-23T04:40:17;24.30;;;24.20;;
9270;SDS011;4673;53.458;9.940;2023-03-23T04:42:44;21.30;;;21.20;;
9270;SDS011;4673;53.458;9.940;2023-03-23T04:45:11;23.23;;;23.13;;
9270;SDS011;4673;53.458;9.940;2023-03-23T04:47:41;23.13;;;23.03;;
9270;SDS011;4673;53.458;9.940;2023-03-23T04:50:14;22.80;;;22.70;;
9270;SDS011;4673;53.458;9.940;2023-03-23T04:52:39;20.60;;;20.50;;
9270;SDS011;4673;53.458;9.940;2023-03-23T04:55:10;17.73;;;17.63;;
9270;SDS011;4673;53.458;9.940;2023-03-23T04:57:37;17.40;;;17.30;;
9270;SDS011;4673;53.458;9.940;2023-03-23T05:00:03;16.63;;;16.53;;
9270;SDS011;4673;53.458;9.940;2023-03-23T05:02:37;15.93;;;15.83;;
9270;SDS011;4673;53.458;9.940;2023-03-23T05:05:05;14.17;;;14.17;;
9270;SDS011;4673;53.458;9.940;2023-03-23T05:07:31;13.70;;;13.70;;
9270;SDS011;4673;53.458;9.940;2023-03-23T05:09:57;13.20;;;13.20;;
9270;SDS011;4673;53.458;9.940;2023-03-23T05:12:22;13.17;;;13.13;;
9270;SDS011;4673;53.458;9.940;2023-03-23T05:14:48;11.93;;;11.90;;
9270;SDS011;4673;53.458;9.940;2023-03-23T05:17:14;12.73;;;12.73;;
9270;SDS011;4673;53.458;9.940;2023-03-23T05:19:42;11.93;;;11.93;;
9270;SDS011;4673;53.458;9.940;2023-03-23T05:22:09;11.27;;;11.27;;
9270;SDS011;4673;53.458;9.940;2023-03-23T05:24:37;10.40;;;10.40;;
9270;SDS011;4673;53.458;9.940;2023-03-23T05:27:03;10.83;;;10.83;;
9270;SDS011;4673;53.458;9.940;2023-03-23T05:29:29;11.80;;;11.70;;
9270;SDS011;4673;53.458;9.940;2023-03-23T05:31:58;11.33;;;11.33;;
9270;SDS011;4673;53.458;9.940;2023-03-23T05:34:27;9.93;;;9.93;;
9270;SDS011;4673;53.458;9.940;2023-03-23T05:36:54;10.57;;;10.57;;
9270;SDS011;4673;53.458;9.940;2023-03-23T05:39:20;10.50;;;10.50;;
9270;SDS011;4673;53.458;9.940;2023-03-23T05:41:46;10.90;;;10.90;;
9270;SDS011;4673;53.458;9.940;2023-03-23T05:44:12;10.27;;;10.27;;
9270;SDS011;4673;53.458;9.940;2023-03-23T05:46:38;10.13;;;10.13;;
9270;SDS011;4673;53.458;9.940;2023-03-23T05:49:04;9.37;;;9.37;;
9270;SDS011;4673;53.458;9.940;2023-03-23T05:51:30;10.13;;;10.13;;
9270;SDS011;4673;53.458;9.940;2023-03-23T05:53:56;8.90;;;8.90;;
9270;SDS011;4673;53.458;9.940;2023-03-23T05:56:22;9.27;;;9.27;;
9270;SDS011;4673;53.458;9.940;2023-03-23T05:58:48;8.43;;;8.43;;
9270;SDS011;4673;53.458;9.940;2023-03-23T06:01:13;7.70;;;7.70;;
9270;SDS011;4673;53.458;9.940;2023-03-23T06:03:41;8.10;;;8.10;;
9270;SDS011;4673;53.458;9.940;2023-03-23T06:06:09;7.53;;;7.53;;
9270;SDS011;4673;53.458;9.940;2023-03-23T06:08:37;7.50;;;7.50;;
9270;SDS011;4673;53.458;9.940;2023-03-23T06:11:03;7.77;;;7.77;;
9270;SDS011;4673;53.458;9.940;2023-03-23T06:13:29;8.27;;;8.27;;
9270;SDS011;4673;53.458;9.940;2023-03-23T06:15:56;6.77;;;6.77;;
9270;SDS011;4673;53.458;9.940;2023-03-23T06:18:24;7.47;;;7.47;;
9270;SDS011;4673;53.458;9.940;2023-03-23T06:20:51;7.03;;;7.03;;
9270;SDS011;4673;53.458;9.940;2023-03-23T06:23:17;7.07;;;7.07;;
9270;SDS011;4673;53.458;9.940;2023-03-23T06:25:43;7.13;;;7.13;;
9270;SDS011;4673;53.458;9.940;2023-03-23T06:28:09;7.17;;;7.17;;
9270;SDS011;4673;53.458;9.940;2023-03-23T06:30:38;7.50;;;7.50;;
9270;SDS011;4673;53.458;9.940;2023-03-23T06:33:05;6.80;;;6.80;;
9270;SDS011;4673;53.458;9.940;2023-03-23T06:35:34;6.80;;;6.80;;
9270;SDS011;4673;53.458;9.940;2023-03-23T06:38:00;7.07;;;7.07;;
9270;SDS011;4673;53.458;9.940;2023-03-23T06:40:27;6.23;;;6.23;;
9270;SDS011;4673;53.458;9.940;2023-03-23T06:42:54;6.57;;;6.57;;
9270;SDS011;4673;53.458;9.940;2023-03-23T06:45:22;6.60;;;6.60;;
9270;SDS011;4673;53.458;9.940;2023-03-23T06:47:47;6.00;;;6.00;;
9270;SDS011;4673;53.458;9.940;2023-03-23T06:50:14;5.47;;;5.47;;
9270;SDS011;4673;53.458;9.940;2023-03-23T06:52:44;5.30;;;5.30;;
9270;SDS011;4673;53.458;9.940;2023-03-23T06:55:11;4.83;;;4.83;;
9270;SDS011;4673;53.458;9.940;2023-03-23T06:57:37;5.07;;;5.07;;
9270;SDS011;4673;53.458;9.940;2023-03-23T07:00:03;3.83;;;3.83;;
9270;SDS011;4673;53.458;9.940;2023-03-23T07:02:41;3.87;;;3.87;;
9270;SDS011;4673;53.458;9.940;2023-03-23T07:05:08;4.73;;;4.73;;
9270;SDS011;4673;53.458;9.940;2023-03-23T07:07:35;3.70;;;3.70;;
9270;SDS011;4673;53.458;9.940;2023-03-23T07:10:02;3.13;;;3.13;;
9270;SDS011;4673;53.458;9.940;2023-03-23T07:12:29;3.23;;;3.23;;
9270;SDS011;4673;53.458;9.940;2023-03-23T07:14:55;3.20;;;3.20;;
9270;SDS011;4673;53.458;9.940;2023-03-23T07:17:20;3.73;;;3.73;;
9270;SDS011;4673;53.458;9.940;2023-03-23T07:19:46;4.27;;;4.27;;
9270;SDS011;4673;53.458;9.940;2023-03-23T07:22:12;3.67;;;3.67;;
9270;SDS011;4673;53.458;9.940;2023-03-23T07:24:38;3.33;;;3.33;;
9270;SDS011;4673;53.458;9.940;2023-03-23T07:27:03;3.00;;;3.00;;
9270;SDS011;4673;53.458;9.940;2023-03-23T07:29:30;3.60;;;3.60;;
9270;SDS011;4673;53.458;9.940;2023-03-23T07:31:59;3.27;;;3.27;;
9270;SDS011;4673;53.458;9.940;2023-03-23T07:34:26;2.53;;;2.53;;
9270;SDS011;4673;53.458;9.940;2023-03-23T07:36:52;2.93;;;2.93;;
9270;SDS011;4673;53.458;9.940;2023-03-23T07:39:18;2.87;;;2.87;;
9270;SDS011;4673;53.458;9.940;2023-03-23T07:41:44;3.40;;;3.40;;
9270;SDS011;4673;53.458;9.940;2023-03-23T07:44:10;3.30;;;3.30;;
9270;SDS011;4673;53.458;9.940;2023-03-23T07:46:39;3.63;;;3.63;;
9270;SDS011;4673;53.458;9.940;2023-03-23T07:49:04;3.50;;;3.50;;
9270;SDS011;4673;53.458;9.940;2023-03-23T07:51:31;3.93;;;3.93;;
9270;SDS011;4673;53.458;9.940;2023-03-23T07:53:57;3.63;;;3.63;;
9270;SDS011;4673;53.458;9.940;2023-03-23T07:56:23;2.87;;;2.87;;
9270;SDS011;4673;53.458;9.940;2023-03-23T07:58:50;3.63;;;3.63;;
9270;SDS011;4673;53.458;9.940;2023-03-23T08:01:16;3.63;;;3.63;;
9270;SDS011;4673;53.458;9.940;2023-03-23T08:03:42;3.30;;;3.30;;
9270;SDS011;4673;53.458;9.940;2023-03-23T08:06:08;3.70;;;3.70;;
9270;SDS011;4673;53.458;9.940;2023-03-23T08:08:35;3.00;;;3.00;;
9270;SDS011;4673;53.458;9.940;2023-03-23T08:11:02;3.57;;;3.57;;
9270;SDS011;4673;53.458;9.940;2023-03-23T08:13:28;3.37;;;3.37;;
9270;SDS011;4673;53.458;9.940;2023-03-23T08:15:54;3.87;;;3.87;;
9270;SDS011;4673;53.458;9.940;2023-03-23T08:18:21;3.83;;;3.83;;
9270;SDS011;4673;53.458;9.940;2023-03-23T08:20:47;4.50;;;4.50;;
9270;SDS011;4673;53.458;9.940;2023-03-23T08:23:14;5.07;;;5.07;;
9270;SDS011;4673;53.458;9.940;2023-03-23T08:25:41;5.07;;;5.07;;
9270;SDS011;4673;53.458;9.940;2023-03-23T08:28:08;4.77;;;4.77;;
9270;SDS011;4673;53.458;9.940;2023-03-23T08:30:34;4.77;;;4.77;;
9270;SDS011;4673;53.458;9.940;2023-03-23T08:33:03;4.17;;;4.17;;
9270;SDS011;4673;53.458;9.940;2023-03-23T08:35:30;3.80;;;3.80;;
9270;SDS011;4673;53.458;9.940;2023-03-23T08:37:55;3.80;;;3.80;;
9270;SDS011;4673;53.458;9.940;2023-03-23T08:40:22;3.90;;;3.90;;
9270;SDS011;4673;53.458;9.940;2023-03-23T08:42:49;4.03;;;4.03;;
9270;SDS011;4673;53.458;9.940;2023-03-23T08:45:17;3.83;;;3.83;;
9270;SDS011;4673;53.458;9.940;2023-03-23T08:47:45;3.37;;;3.37;;
9270;SDS011;4673;53.458;9.940;2023-03-23T08:50:16;2.77;;;2.77;;
9270;SDS011;4673;53.458;9.940;2023-03-23T08:52:43;2.60;;;2.60;;
9270;SDS011;4673;53.458;9.940;2023-03-23T08:55:09;2.60;;;2.60;;
9270;SDS011;4673;53.458;9.940;2023-03-23T08:57:35;2.33;;;2.33;;
9270;SDS011;4673;53.458;9.940;2023-03-23T09:00:05;2.37;;;2.37;;
9270;SDS011;4673;53.458;9.940;2023-03-23T09:02:44;1.70;;;1.70;;
9270;SDS011;4673;53.458;9.940;2023-03-23T09:05:12;1.77;;;1.77;;
9270;SDS011;4673;53.458;9.940;2023-03-23T09:07:39;1.57;;;1.57;;
9270;SDS011;4673;53.458;9.940;2023-03-23T09:10:07;2.10;;;2.10;;
9270;SDS011;4673;53.458;9.940;2023-03-23T09:12:34;1.40;;;1.40;;
9270;SDS011;4673;53.458;9.940;2023-03-23T09:15:01;1.97;;;1.97;;
9270;SDS011;4673;53.458;9.940;2023-03-23T09:17:33;2.03;;;2.03;;
9270;SDS011;4673;53.458;9.940;2023-03-23T09:20:04;2.30;;;2.30;;
9270;SDS011;4673;53.458;9.940;2023-03-23T09:22:36;1.50;;;1.50;;
9270;SDS011;4673;53.458;9.940;2023-03-23T09:25:02;1.43;;;1.43;;
9270;SDS011;4673;53.458;9.940;2023-03-23T09:27:28;1.70;;;1.70;;
9270;SDS011;4673;53.458;9.940;2023-03-23T09:29:54;1.53;;;1.53;;
9270;SDS011;4673;53.458;9.940;2023-03-23T09:32:20;2.00;;;2.00;;
9270;SDS011;4673;53.458;9.940;2023-03-23T09:34:47;1.90;;;1.90;;
9270;SDS011;4673;53.458;9.940;2023-03-23T09:37:13;1.60;;;1.60;;
9270;SDS011;4673;53.458;9.940;2023-03-23T09:39:41;2.00;;;2.00;;
9270;SDS011;4673;53.458;9.940;2023-03-23T09:42:18;2.00;;;2.00;;
9270;SDS011;4673;53.458;9.940;2023-03-23T09:50:15;1.90;;;1.90;;
9270;SDS011;4673;53.458;9.940;2023-03-23T09:55:22;1.90;;;1.90;;
9270;SDS011;4673;53.458;9.940;2023-03-23T09:57:58;2.40;;;2.40;;
9270;SDS011;4673;53.458;9.940;2023-03-23T10:05:36;2.63;;;2.63;;
9270;SDS011;4673;53.458;9.940;2023-03-23T10:08:11;1.80;;;1.80;;
9270;SDS011;4673;53.458;9.940;2023-03-23T10:16:31;1.88;;;1.88;;
9270;SDS011;4673;53.458;9.940;2023-03-23T10:21:45;3.37;;;3.37;;
9270;SDS011;4673;53.458;9.940;2023-03-23T10:24:17;2.80;;;2.80;;
9270;SDS011;4673;53.458;9.940;2023-03-23T10:29:26;2.20;;;2.20;;
9270;SDS011;4673;53.458;9.940;2023-03-23T10:35:03;2.33;;;2.33;;
9270;SDS011;4673;53.458;9.940;2023-03-23T10:37:34;2.57;;;2.57;;
9270;SDS011;4673;53.458;9.940;2023-03-23T10:40:05;2.70;;;2.70;;
9270;SDS011;4673;53.458;9.940;2023-03-23T10:42:39;2.83;;;2.83;;
9270;SDS011;4673;53.458;9.940;2023-03-23T10:45:12;2.40;;;2.40;;
9270;SDS011;4673;53.458;9.940;2023-03-23T10:47:43;1.93;;;1.93;;
9270;SDS011;4673;53.458;9.940;2023-03-23T10:50:31;2.30;;;2.30;;
9270;SDS011;4673;53.458;9.940;2023-03-23T10:52:59;3.30;;;3.30;;
9270;SDS011;4673;53.458;9.940;2023-03-23T10:55:40;2.72;;;2.72;;
9270;SDS011;4673;53.458;9.940;2023-03-23T10:58:09;2.60;;;2.60;;
9270;SDS011;4673;53.458;9.940;2023-03-23T11:00:41;2.92;;;2.92;;
9270;SDS011;4673;53.458;9.940;2023-03-23T11:05:42;4.03;;;4.03;;
9270;SDS011;4673;53.458;9.940;2023-03-23T11:08:13;2.95;;;2.95;;
9270;SDS011;4673;53.458;9.940;2023-03-23T11:10:51;2.38;;;2.38;;
9270;SDS011;4673;53.458;9.940;2023-03-23T11:13:22;3.30;;;3.30;;
9270;SDS011;4673;53.458;9.940;2023-03-23T11:15:54;3.03;;;3.03;;
9270;SDS011;4673;53.458;9.940;2023-03-23T11:20:49;2.95;;;2.95;;
9270;SDS011;4673;53.458;9.940;2023-03-23T11:23:24;2.20;;;2.20;;
9270;SDS011;4673;53.458;9.940;2023-03-23T11:25:58;2.80;;;2.80;;
9270;SDS011;4673;53.458;9.940;2023-03-23T11:28:26;3.03;;;3.03;;
9270;SDS011;4673;53.458;9.940;2023-03-23T11:30:55;3.28;;;3.28;;
9270;SDS011;4673;53.458;9.940;2023-03-23T11:33:30;2.38;;;2.38;;
9270;SDS011;4673;53.458;9.940;2023-03-23T11:36:14;2.30;;;2.30;;
9270;SDS011;4673;53.458;9.940;2023-03-23T11:38:40;2.67;;;2.67;;
9270;SDS011;4673;53.458;9.940;2023-03-23T11:41:09;3.30;;;3.30;;
9270;SDS011;4673;53.458;9.940;2023-03-23T11:43:39;3.13;;;3.13;;
9270;SDS011;4673;53.458;9.940;2023-03-23T11:46:20;2.55;;;2.55;;
9270;SDS011;4673;53.458;9.940;2023-03-23T11:48:57;2.40;;;2.40;;
9270;SDS011;4673;53.458;9.940;2023-03-23T11:51:32;2.90;;;2.90;;
9270;SDS011;4673;53.458;9.940;2023-03-23T11:56:56;2.53;;;2.53;;
9270;SDS011;4673;53.458;9.940;2023-03-23T11:59:29;2.35;;;2.35;;
9270;SDS011;4673;53.458;9.940;2023-03-23T12:12:25;3.00;;;3.00;;
9270;SDS011;4673;53.458;9.940;2023-03-23T12:23:23;3.47;;;3.47;;
9270;SDS011;4673;53.458;9.940;2023-03-23T12:26:52;2.67;;;2.67;;
9270;SDS011;4673;53.458;9.940;2023-03-23T12:28:50;3.03;;;3.03;;
9270;SDS011;4673;53.458;9.940;2023-03-23T12:44:25;3.27;;;3.27;;
9270;SDS011;4673;53.458;9.940;2023-03-23T12:49:27;2.78;;;2.78;;
9270;SDS011;4673;53.458;9.940;2023-03-23T12:54:42;3.35;;;3.35;;
9270;SDS011;4673;53.458;9.940;2023-03-23T13:03:25;2.40;;;2.40;;
9270;SDS011;4673;53.458;9.940;2023-03-23T13:08:17;2.92;;;2.92;;
9270;SDS011;4673;53.458;9.940;2023-03-23T13:10:46;2.97;;;2.97;;
9270;SDS011;4673;53.458;9.940;2023-03-23T13:13:21;3.13;;;3.13;;
9270;SDS011;4673;53.458;9.940;2023-03-23T13:16:11;3.05;;;3.05;;
9270;SDS011;4673;53.458;9.940;2023-03-23T13:18:53;2.45;;;2.45;;
9270;SDS011;4673;53.458;9.940;2023-03-23T13:21:31;2.70;;;2.70;;
9270;SDS011;4673;53.458;9.940;2023-03-23T13:24:01;2.85;;;2.85;;
9270;SDS011;4673;53.458;9.940;2023-03-23T13:26:32;2.63;;;2.63;;
9270;SDS011;4673;53.458;9.940;2023-03-23T13:29:13;3.05;;;3.05;;
9270;SDS011;4673;53.458;9.940;2023-03-23T13:31:43;2.40;;;2.40;;
9270;SDS011;4673;53.458;9.940;2023-03-23T13:39:51;2.50;;;2.50;;
9270;SDS011;4673;53.458;9.940;2023-03-23T13:42:36;2.45;;;2.45;;
9270;SDS011;4673;53.458;9.940;2023-03-23T13:47:44;2.20;;;2.20;;
9270;SDS011;4673;53.458;9.940;2023-03-23T14:05:36;1.70;;;1.70;;
9270;SDS011;4673;53.458;9.940;2023-03-23T14:10:56;1.48;;;1.48;;
9270;SDS011;4673;53.458;9.940;2023-03-23T14:13:32;1.20;;;1.20;;
9270;SDS011;4673;53.458;9.940;2023-03-23T14:16:21;1.23;;;1.23;;
9270;SDS011;4673;53.458;9.940;2023-03-23T14:18:51;1.30;;;1.30;;
9270;SDS011;4673;53.458;9.940;2023-03-23T14:21:24;2.93;;;2.93;;
9270;SDS011;4673;53.458;9.940;2023-03-23T14:24:08;1.77;;;1.77;;
9270;SDS011;4673;53.458;9.940;2023-03-23T14:26:36;1.10;;;1.10;;
9270;SDS011;4673;53.458;9.940;2023-03-23T14:29:03;1.43;;;1.43;;
9270;SDS011;4673;53.458;9.940;2023-03-23T14:31:30;1.47;;;1.47;;
9270;SDS011;4673;53.458;9.940;2023-03-23T14:34:00;1.73;;;1.73;;
9270;SDS011;4673;53.458;9.940;2023-03-23T14:36:29;1.23;;;1.23;;
9270;SDS011;4673;53.458;9.940;2023-03-23T14:41:43;1.57;;;1.57;;
9270;SDS011;4673;53.458;9.940;2023-03-23T14:44:13;1.80;;;1.80;;
9270;SDS011;4673;53.458;9.940;2023-03-23T14:46:42;1.40;;;1.40;;
9270;SDS011;4673;53.458;9.940;2023-03-23T14:49:16;1.70;;;1.70;;
9270;SDS011;4673;53.458;9.940;2023-03-23T14:51:53;1.60;;;1.60;;
9270;SDS011;4673;53.458;9.940;2023-03-23T14:54:24;1.63;;;1.63;;
9270;SDS011;4673;53.458;9.940;2023-03-23T14:56:52;1.50;;;1.50;;
9270;SDS011;4673;53.458;9.940;2023-03-23T14:59:19;2.00;;;2.00;;
9270;SDS011;4673;53.458;9.940;2023-03-23T15:01:47;1.90;;;1.90;;
9270;SDS011;4673;53.458;9.940;2023-03-23T15:04:23;1.80;;;1.80;;
9270;SDS011;4673;53.458;9.940;2023-03-23T15:06:55;2.47;;;2.47;;
9270;SDS011;4673;53.458;9.940;2023-03-23T15:09:26;2.03;;;2.03;;
9270;SDS011;4673;53.458;9.940;2023-03-23T15:11:57;2.93;;;2.93;;
9270;SDS011;4673;53.458;9.940;2023-03-23T15:14:35;2.13;;;2.13;;
9270;SDS011;4673;53.458;9.940;2023-03-23T15:17:10;1.47;;;1.47;;
9270;SDS011;4673;53.458;9.940;2023-03-23T15:19:47;2.20;;;2.20;;
9270;SDS011;4673;53.458;9.940;2023-03-23T15:22:24;1.93;;;1.93;;
9270;SDS011;4673;53.458;9.940;2023-03-23T15:30:30;1.70;;;1.70;;
9270;SDS011;4673;53.458;9.940;2023-03-23T15:33:06;2.07;;;2.07;;
9270;SDS011;4673;53.458;9.940;2023-03-23T15:35:38;1.60;;;1.60;;
9270;SDS011;4673;53.458;9.940;2023-03-23T15:43:58;1.47;;;1.47;;
9270;SDS011;4673;53.458;9.940;2023-03-23T15:46:35;1.67;;;1.67;;
9270;SDS011;4673;53.458;9.940;2023-03-23T15:49:08;1.67;;;1.67;;
9270;SDS011;4673;53.458;9.940;2023-03-23T15:51:38;1.30;;;1.30;;
9270;SDS011;4673;53.458;9.940;2023-03-23T15:54:21;1.37;;;1.37;;
9270;SDS011;4673;53.458;9.940;2023-03-23T15:57:03;1.83;;;1.83;;
9270;SDS011;4673;53.458;9.940;2023-03-23T15:59:32;2.03;;;2.03;;
9270;SDS011;4673;53.458;9.940;2023-03-23T16:02:15;1.43;;;1.43;;
9270;SDS011;4673;53.458;9.940;2023-03-23T16:04:53;1.50;;;1.50;;
9270;SDS011;4673;53.458;9.940;2023-03-23T16:07:22;2.07;;;2.07;;
9270;SDS011;4673;53.458;9.940;2023-03-23T16:10:14;2.00;;;2.00;;
9270;SDS011;4673;53.458;9.940;2023-03-23T16:12:44;1.50;;;1.50;;
9270;SDS011;4673;53.458;9.940;2023-03-23T16:15:20;2.20;;;2.20;;
9270;SDS011;4673;53.458;9.940;2023-03-23T16:17:46;1.63;;;1.63;;
9270;SDS011;4673;53.458;9.940;2023-03-23T16:20:43;1.60;;;1.60;;
9270;SDS011;4673;53.458;9.940;2023-03-23T16:23:22;2.40;;;2.40;;
9270;SDS011;4673;53.458;9.940;2023-03-23T16:25:57;1.90;;;1.90;;
9270;SDS011;4673;53.458;9.940;2023-03-23T16:38:36;1.67;;;1.67;;
9270;SDS011;4673;53.458;9.940;2023-03-23T16:42:09;1.90;;;1.90;;
9270;SDS011;4673;53.458;9.940;2023-03-23T16:45:19;1.70;;;1.70;;
9270;SDS011;4673;53.458;9.940;2023-03-23T16:47:50;1.30;;;1.30;;
9270;SDS011;4673;53.458;9.940;2023-03-23T16:50:42;1.50;;;1.50;;
9270;SDS011;4673;53.458;9.940;2023-03-23T16:56:38;2.33;;;2.33;;
9270;SDS011;4673;53.458;9.940;2023-03-23T17:03:13;1.40;;;1.40;;
9270;SDS011;4673;53.458;9.940;2023-03-23T17:08:56;1.67;;;1.67;;
9270;SDS011;4673;53.458;9.940;2023-03-23T17:11:26;2.10;;;2.10;;
9270;SDS011;4673;53.458;9.940;2023-03-23T17:13:52;3.33;;;3.33;;
9270;SDS011;4673;53.458;9.940;2023-03-23T17:16:18;4.63;;;4.63;;
9270;SDS011;4673;53.458;9.940;2023-03-23T17:18:43;4.60;;;4.60;;
9270;SDS011;4673;53.458;9.940;2023-03-23T17:21:09;3.60;;;3.60;;
9270;SDS011;4673;53.458;9.940;2023-03-23T17:26:30;2.57;;;2.57;;
9270;SDS011;4673;53.458;9.940;2023-03-23T17:32:40;2.30;;;2.30;;
9270;SDS011;4673;53.458;9.940;2023-03-23T17:35:48;2.07;;;2.07;;
9270;SDS011;4673;53.458;9.940;2023-03-23T17:38:15;2.30;;;2.30;;
9270;SDS011;4673;53.458;9.940;2023-03-23T17:40:54;2.70;;;2.70;;
9270;SDS011;4673;53.458;9.940;2023-03-23T17:43:42;2.67;;;2.67;;
9270;SDS011;4673;53.458;9.940;2023-03-23T17:46:35;2.90;;;2.90;;
9270;SDS011;4673;53.458;9.940;2023-03-23T17:49:32;2.67;;;2.67;;
9270;SDS011;4673;53.458;9.940;2023-03-23T17:52:30;3.03;;;3.03;;
9270;SDS011;4673;53.458;9.940;2023-03-23T17:54:56;2.13;;;2.13;;
9270;SDS011;4673;53.458;9.940;2023-03-23T17:57:24;2.53;;;2.53;;
9270;SDS011;4673;53.458;9.940;2023-03-23T17:59:56;2.57;;;2.57;;
9270;SDS011;4673;53.458;9.940;2023-03-23T18:02:35;2.57;;;2.57;;
9270;SDS011;4673;53.458;9.940;2023-03-23T18:05:01;2.47;;;2.47;;
9270;SDS011;4673;53.458;9.940;2023-03-23T18:07:27;4.53;;;4.53;;
9270;SDS011;4673;53.458;9.940;2023-03-23T18:09:56;3.93;;;3.93;;